^^
Saratoga-Weather Station Historical Data
Daily Summary for May 17, 2020 Units:  Metric    English   Both
Daily Weekly Monthly Yearly Custom
  High: Low: Average:
Temperature: 9.1 °C 6.6 °C 7.5 °C
Dew Point: 7.6 °C 4.2 °C 6.1 °C
Humidity: 94% 81% 90%
Wind Speed: 22.7km/h 0km/h 5.1km/h
Wind Gust: 29km/h - -
Wind- - West
Pressure: 1021.7 hPa 1011.9 hPa -
Precipitation: 8.1 mm    
Historical Graphs
 
 
Tabular Data for May 17, 2020
Time Temperature Dew Point Pressure Wind Wind Speed Wind Gust Humidity Rainfall Rate (Hourly) solar
00:03 9.1 °C 7.5 °C 1011.9 hPa WNW 11.1 km/h 19.3 km/h 90% 0.8 mm 0 W/m2
00:08 9 °C 7.6 °C 1012.2 hPa West 9.7 km/h 11.3 km/h 91% 0.5 mm 0 W/m2
00:13 9 °C 7.6 °C 1012.5 hPa WNW 11.1 km/h 19.3 km/h 91% 0.5 mm 0 W/m2
00:18 8.9 °C 7.5 °C 1012.9 hPa SW 7.9 km/h 20.9 km/h 91% 0.8 mm 0 W/m2
00:23 8.8 °C 7.6 °C 1012.9 hPa West 11.1 km/h 16.1 km/h 92% 0.8 mm 0 W/m2
00:28 8.8 °C 7.6 °C 1012.9 hPa West 3.2 km/h 16.1 km/h 92% 1.0 mm 0 W/m2
00:33 8.8 °C 7.6 °C 1012.9 hPa WNW 4.7 km/h 9.7 km/h 92% 1.3 mm 0 W/m2
00:38 8.7 °C 7.5 °C 1012.9 hPa West 3.2 km/h 12.9 km/h 92% 1.5 mm 0 W/m2
00:43 8.7 °C 7.5 °C 1013.2 hPa WNW 9.7 km/h 12.9 km/h 92% 1.8 mm 0 W/m2
00:48 8.6 °C 7.5 °C 1013.2 hPa WNW 1.4 km/h 6.4 km/h 93% 2.0 mm 0 W/m2
00:53 8.6 °C 7.5 °C 1013.2 hPa WNW 7.9 km/h 11.3 km/h 93% 2.0 mm 0 W/m2
00:58 8.6 °C 7.5 °C 1013.2 hPa WSW 14.3 km/h 16.1 km/h 93% 1.8 mm 0 W/m2
01:03 8.6 °C 7.5 °C 1013.2 hPa WSW 14.3 km/h 14.5 km/h 93% 1.8 mm 0 W/m2
01:08 8.6 °C 7.5 °C 1013.5 hPa WNW 7.9 km/h 12.9 km/h 93% 1.5 mm 0 W/m2
01:13 8.6 °C 7.4 °C 1013.5 hPa WNW 3.2 km/h 8 km/h 92% 1.8 mm 0 W/m2
01:18 8.6 °C 7.5 °C 1013.5 hPa SW 7.9 km/h 14.5 km/h 93% 1.8 mm 0 W/m2
01:23 8.6 °C 7.5 °C 1013.5 hPa Calm   6.4 km/h 93% 1.8 mm 0 W/m2
01:28 8.6 °C 7.5 °C 1013.5 hPa Calm   14.5 km/h 93% 1.8 mm 0 W/m2
01:33 8.6 °C 7.5 °C 1013.5 hPa Calm   6.4 km/h 93% 1.8 mm 0 W/m2
01:38 8.6 °C 7.5 °C 1013.9 hPa WNW 4.7 km/h 8 km/h 93% 1.5 mm 0 W/m2
01:43 8.6 °C 7.5 °C 1014.2 hPa WNW 7.9 km/h 11.3 km/h 93% 1.5 mm 0 W/m2
01:48 8.6 °C 7.5 °C 1014.6 hPa WSW 11.1 km/h 11.3 km/h 93% 1.5 mm 0 W/m2
01:53 8.6 °C 7.5 °C 1014.9 hPa SSW 7.9 km/h 20.9 km/h 93% 1.8 mm 0 W/m2
01:58 8.5 °C 7.3 °C 1015.2 hPa WSW 13 km/h 17.7 km/h 92% 2.3 mm 0 W/m2
02:03 8.3 °C 7.1 °C 1014.9 hPa West 13 km/h 29 km/h 92% 2.5 mm 0 W/m2
02:08 8 °C 6.6 °C 1015.2 hPa West 16.3 km/h 17.7 km/h 91% 3.0 mm 0 W/m2
02:13 7.8 °C 6.4 °C 1014.9 hPa WSW 6.4 km/h 24.1 km/h 91% 3.3 mm 0 W/m2
02:18 7.7 °C 6.3 °C 1014.6 hPa WNW 3.2 km/h 6.4 km/h 91% 3.3 mm 0 W/m2
02:23 7.6 °C 6.2 °C 1014.9 hPa NW 1.4 km/h 16.1 km/h 91% 3.3 mm 0 W/m2
02:28 7.5 °C 6.1 °C 1014.2 hPa Calm   1.6 km/h 91% 3.6 mm 0 W/m2
02:33 7.5 °C 6.3 °C 1014.6 hPa Calm   14.5 km/h 92% 3.6 mm 0 W/m2
02:38 7.4 °C 6.2 °C 1014.6 hPa Calm     92% 3.3 mm 0 W/m2
02:43 7.4 °C 6.3 °C 1014.6 hPa NE 4.7 km/h 4.8 km/h 93% 3.3 mm 0 W/m2
02:48 7.5 °C 6.4 °C 1014.6 hPa East 1.4 km/h 3.2 km/h 93% 3.3 mm 0 W/m2
02:53 7.6 °C 6.5 °C 1014.9 hPa NW 1.4 km/h 4.8 km/h 93% 3.0 mm 0 W/m2
02:58 7.6 °C 6.5 °C 1015.2 hPa WNW 3.2 km/h 9.7 km/h 93% 2.5 mm 0 W/m2
03:03 7.7 °C 6.6 °C 1014.9 hPa Calm   8 km/h 93% 2.3 mm 0 W/m2
03:08 7.7 °C 6.8 °C 1015.2 hPa North 6.4 km/h 9.7 km/h 94% 1.8 mm 0 W/m2
03:13 7.8 °C 6.9 °C 1015.2 hPa West 13 km/h 19.3 km/h 94% 1.5 mm 0 W/m2
03:18 7.9 °C 6.8 °C 1015.2 hPa WNW 3.2 km/h 12.9 km/h 93% 1.0 mm 0 W/m2
03:23 8.1 °C 7 °C 1015.2 hPa WNW 6.4 km/h 19.3 km/h 93% 0.8 mm 0 W/m2
03:28 8.1 °C 7 °C 1014.9 hPa Calm   3.2 km/h 93% 0.5 mm 0 W/m2
03:33 8 °C 6.9 °C 1014.6 hPa SSW 1.4 km/h 12.9 km/h 93% 0.5 mm 0 W/m2
03:38 7.9 °C 6.7 °C 1014.9 hPa NNW 4.7 km/h 6.4 km/h 92% 0.2 mm 0 W/m2
03:43 7.9 °C 6.7 °C 1014.9 hPa West 3.2 km/h 4.8 km/h 92% 0.2 mm 0 W/m2
03:48 7.8 °C 6.6 °C 1014.9 hPa SW 3.2 km/h 14.5 km/h 92% 0.2 mm 0 W/m2
03:53 7.7 °C 6.3 °C 1014.9 hPa North 9.7 km/h 9.7 km/h 91% 0.5 mm 0 W/m2
03:58 7.6 °C 6.1 °C 1014.9 hPa West 3.2 km/h 12.9 km/h 90% 0.5 mm 0 W/m2
04:03 7.4 °C 5.9 °C 1014.9 hPa WNW 6.4 km/h 11.3 km/h 90% 0.5 mm 0 W/m2
04:08 7.4 °C 5.9 °C 1014.9 hPa SW 4.7 km/h 4.8 km/h 90% 0.5 mm 0 W/m2
04:13 7.3 °C 5.8 °C 1015.2 hPa SW 4.7 km/h 6.4 km/h 90% 0.5 mm 0 W/m2
04:18 7.2 °C 5.7 °C 1015.2 hPa NNE 6.4 km/h 6.4 km/h 90% 0.5 mm 0 W/m2
04:23 7.1 °C 5.6 °C 1015.2 hPa SE 1.4 km/h 6.4 km/h 90% 0.5 mm 0 W/m2
04:28 7 °C 5.5 °C 1015.6 hPa NNW 6.4 km/h 6.4 km/h 90% 0.2 mm 0 W/m2
04:34 6.9 °C 5.4 °C 1015.6 hPa West 1.4 km/h 4.8 km/h 90% 0.2 mm 0 W/m2
04:39 6.8 °C 5.3 °C 1015.6 hPa WSW 4.7 km/h 4.8 km/h 90% 0.2 mm 0 W/m2
04:44 6.8 °C 5.3 °C 1015.6 hPa WSW 4.7 km/h 6.4 km/h 90% 0.2 mm 0 W/m2
04:49 6.7 °C 5.3 °C 1015.6 hPa West 9.7 km/h 9.7 km/h 91% 0.2 mm 0 W/m2
04:54 6.7 °C 5.2 °C 1015.6 hPa WNW 3.2 km/h 3.2 km/h 90% 0.0 mm 0 W/m2
04:59 6.7 °C 5.2 °C 1015.6 hPa West 3.2 km/h 6.4 km/h 90% 0.0 mm 0 W/m2
05:04 6.7 °C 5.2 °C 1015.6 hPa North 3.2 km/h 3.2 km/h 90% 0.0 mm 0 W/m2
05:09 6.7 °C 5.2 °C 1015.9 hPa NW 6.4 km/h 6.4 km/h 90% 0.0 mm 0 W/m2
05:14 6.8 °C 5.3 °C 1015.6 hPa West 1.4 km/h 6.4 km/h 90% 0.0 mm 0 W/m2
05:19 6.7 °C 5.2 °C 1015.6 hPa WNW 3.2 km/h 3.2 km/h 90% 0.0 mm 0 W/m2
05:24 6.7 °C 5.2 °C 1015.9 hPa North 1.4 km/h 3.2 km/h 90% 0.0 mm 0 W/m2
05:29 6.7 °C 5.2 °C 1016.3 hPa WNW 3.2 km/h 6.4 km/h 90% 0.0 mm 0 W/m2
05:34 6.8 °C 5.3 °C 1015.9 hPa WNW 3.2 km/h 4.8 km/h 90% 0.0 mm 0 W/m2
05:39 6.8 °C 5.3 °C 1015.6 hPa WNW 13 km/h 12.9 km/h 90% 0.0 mm 0 W/m2
05:44 6.9 °C 5.2 °C 1015.6 hPa Calm   4.8 km/h 89% 0.0 mm 0 W/m2
05:49 6.9 °C 5.2 °C 1015.6 hPa West 6.4 km/h 6.4 km/h 89% 0.0 mm 0 W/m2
05:54 6.9 °C 5.2 °C 1015.6 hPa Calm   9.7 km/h 89% 0.0 mm 0 W/m2
05:59 7 °C 5.3 °C 1015.6 hPa Calm   6.4 km/h 89% 0.0 mm 0 W/m2
06:04 6.9 °C 5.2 °C 1015.9 hPa NW 3.2 km/h 4.8 km/h 89% 0.0 mm 0 W/m2
06:09 6.9 °C 5.2 °C 1015.6 hPa NNW 3.2 km/h 4.8 km/h 89% 0.0 mm 0 W/m2
06:15 6.9 °C 5.2 °C 1015.6 hPa NW 4.7 km/h 6.4 km/h 89% 0.0 mm 0 W/m2
06:20 6.9 °C 5.2 °C 1015.6 hPa WSW 1.4 km/h 11.3 km/h 89% 0.0 mm 0 W/m2
06:25 6.9 °C 5.2 °C 1015.6 hPa NW 1.4 km/h 8 km/h 89% 0.0 mm 0 W/m2
06:30 6.9 °C 5.4 °C 1015.6 hPa West 3.2 km/h 11.3 km/h 90% 0.0 mm 0 W/m2
06:35 6.9 °C 5.4 °C 1015.2 hPa WNW 3.2 km/h 8 km/h 90% 0.0 mm 0 W/m2
06:40 7 °C 5.6 °C 1015.2 hPa WNW 4.7 km/h 11.3 km/h 91% 0.0 mm 0 W/m2
06:45 7 °C 5.6 °C 1015.2 hPa WNW 3.2 km/h 4.8 km/h 91% 0.0 mm 0 W/m2
06:50 7.1 °C 5.7 °C 1014.9 hPa WNW 3.2 km/h 11.3 km/h 91% 0.0 mm 0 W/m2
06:55 7.1 °C 5.7 °C 1014.9 hPa NW 4.7 km/h 4.8 km/h 91% 0.0 mm 0 W/m2
07:00 7.1 °C 5.9 °C 1015.2 hPa West 1.4 km/h 11.3 km/h 92% 0.0 mm 0 W/m2
07:05 7.1 °C 5.9 °C 1014.9 hPa NE 3.2 km/h 3.2 km/h 92% 0.0 mm 0 W/m2
07:10 7.2 °C 6 °C 1015.2 hPa NW 7.9 km/h 8 km/h 92% 0.0 mm 0 W/m2
07:15 7.2 °C 6 °C 1015.2 hPa NW 3.2 km/h 11.3 km/h 92% 0.0 mm 0 W/m2
07:20 7.2 °C 6 °C 1015.2 hPa West 4.7 km/h 6.4 km/h 92% 0.0 mm 0 W/m2
07:25 7.3 °C 6.1 °C 1015.6 hPa WNW 7.9 km/h 11.3 km/h 92% 0.0 mm 0 W/m2
07:30 7.3 °C 5.9 °C 1015.6 hPa NW 4.7 km/h 4.8 km/h 91% 0.0 mm 0 W/m2
07:35 7.3 °C 5.9 °C 1015.6 hPa NNE 1.4 km/h 3.2 km/h 91% 0.0 mm 0 W/m2
07:40 7.3 °C 5.9 °C 1015.6 hPa Calm   4.8 km/h 91% 0.0 mm 0 W/m2
07:45 7.3 °C 5.9 °C 1015.6 hPa NW 4.7 km/h 8 km/h 91% 0.0 mm 0 W/m2
07:50 7.4 °C 6 °C 1015.6 hPa West 1.4 km/h 9.7 km/h 91% 0.0 mm 0 W/m2
07:55 7.4 °C 6 °C 1015.6 hPa WNW 4.7 km/h 12.9 km/h 91% 0.0 mm 0 W/m2
08:00 7.4 °C 5.9 °C 1015.6 hPa WNW 4.7 km/h 6.4 km/h 90% 0.0 mm 0 W/m2
08:05 7.5 °C 6 °C 1015.6 hPa West 12.9 km/h 12.9 km/h 90% 0.0 mm 0 W/m2
08:10 7.5 °C 6 °C 1015.6 hPa WNW 3.2 km/h 8 km/h 90% 0.0 mm 5 W/m2
08:16 7.5 °C 6 °C 1015.9 hPa West 6.4 km/h 9.7 km/h 90% 0.0 mm 0 W/m2
08:21 7.6 °C 6.1 °C 1015.9 hPa NW 7.9 km/h 9.7 km/h 90% 0.0 mm 5 W/m2
08:26 7.6 °C 6.1 °C 1015.9 hPa NNW 6.4 km/h 6.4 km/h 90% 0.0 mm 7 W/m2
08:31 7.6 °C 6.1 °C 1016.3 hPa WNW 1.4 km/h 4.8 km/h 90% 0.0 mm 7 W/m2
08:36 7.6 °C 6.1 °C 1016.3 hPa West 3.2 km/h 6.4 km/h 90% 0.0 mm 7 W/m2
08:41 7.6 °C 6.1 °C 1016.3 hPa West 1.4 km/h 6.4 km/h 90% 0.0 mm 9 W/m2
08:46 7.6 °C 6.1 °C 1016.3 hPa NW 6.4 km/h 8 km/h 90% 0.0 mm 11 W/m2
08:51 7.5 °C 5.8 °C 1016.3 hPa NW 1.4 km/h 4.8 km/h 89% 0.2 mm 11 W/m2
08:56 7.5 °C 5.8 °C 1016.3 hPa WNW 3.2 km/h 6.4 km/h 89% 0.2 mm 11 W/m2
09:01 7.4 °C 5.9 °C 1016.3 hPa ESE 1.4 km/h 6.4 km/h 90% 0.5 mm 12 W/m2
09:06 7.4 °C 5.7 °C 1016.3 hPa SW 4.7 km/h 12.9 km/h 89% 0.5 mm 16 W/m2
09:11 7.3 °C 5.8 °C 1016.3 hPa Calm   3.2 km/h 90% 0.5 mm 16 W/m2
09:16 7.3 °C 5.6 °C 1015.9 hPa West 1.4 km/h 6.4 km/h 89% 0.5 mm 18 W/m2
09:21 7.2 °C 5.5 °C 1015.9 hPa WSW 1.4 km/h 4.8 km/h 89% 0.8 mm 19 W/m2
09:26 7.2 °C 5.5 °C 1016.3 hPa NW 1.4 km/h 3.2 km/h 89% 0.8 mm 23 W/m2
09:31 7.2 °C 5.7 °C 1015.9 hPa NE 1.4 km/h 14.5 km/h 90% 1.0 mm 30 W/m2
09:36 7.2 °C 5.7 °C 1015.6 hPa NW 3.2 km/h 4.8 km/h 90% 1.0 mm 32 W/m2
09:41 7.1 °C 5.6 °C 1015.6 hPa NNW 3.2 km/h 8 km/h 90% 1.0 mm 30 W/m2
09:46 7.1 °C 5.6 °C 1015.6 hPa North 3.2 km/h 4.8 km/h 90% 1.3 mm 39 W/m2
19:15 8.3 °C 5.2 °C 1018.3 hPa NNW 1.4 km/h 11.3 km/h 81% 0.0 mm 0 W/m2
23:06 7.1 °C 4.4 °C 1021.0 hPa WNW 22.7 km/h 25.7 km/h 83% 0.0 mm 0 W/m2
23:11 7.1 °C 4.4 °C 1021.0 hPa WSW 17.7 km/h 20.9 km/h 83% 0.0 mm 0 W/m2
23:16 6.9 °C 4.2 °C 1021.3 hPa WNW 6.4 km/h 6.4 km/h 83% 0.0 mm 0 W/m2
23:21 6.9 °C 4.4 °C 1021.3 hPa NW 4.7 km/h 14.5 km/h 84% 0.0 mm 0 W/m2
23:26 6.8 °C 4.3 °C 1021.3 hPa West 13 km/h 20.9 km/h 84% 0.0 mm 0 W/m2
23:31 6.8 °C 4.5 °C 1021.3 hPa WNW 6.4 km/h 14.5 km/h 85% 0.0 mm 0 W/m2
23:36 6.7 °C 4.4 °C 1021.3 hPa West 11.1 km/h 17.7 km/h 85% 0.0 mm 0 W/m2
23:46 6.6 °C 4.3 °C 1021.7 hPa West 9.7 km/h 17.7 km/h 85% 0.0 mm 0 W/m2
23:51 6.6 °C 4.4 °C 1021.7 hPa West 11.1 km/h 19.3 km/h 86% 0.0 mm 0 W/m2
23:56 6.6 °C 4.4 °C 1021.7 hPa WSW 4.7 km/h 22.5 km/h 86% 0.0 mm 0 W/m2
Juneau County Weather
Compliments of Weather Underground - 4 mb